createdAt,value
2024-02-06T00:06:01.153Z,9.77
2024-02-06T00:26:14.083Z,6.20
2024-02-06T00:36:26.192Z,9.98
2024-02-06T00:46:30.698Z,4.78
2024-02-06T00:56:34.066Z,5.40
2024-02-06T01:06:36.545Z,5.97
2024-02-06T01:16:38.637Z,8.95
2024-02-06T01:26:41.713Z,10.95
2024-02-06T01:36:53.675Z,8.57
2024-02-06T01:46:58.334Z,5.43
2024-02-06T01:57:02.933Z,15.20
2024-02-06T02:07:08.028Z,9.45
2024-02-06T02:17:09.972Z,10.77
2024-02-06T02:27:15.416Z,8.02
2024-02-06T02:37:18.342Z,13.30
2024-02-06T02:47:20.672Z,12.13
2024-02-06T02:57:23.689Z,12.55
2024-02-06T03:07:25.658Z,15.27
2024-02-06T03:17:33.415Z,13.73
2024-02-06T03:27:40.389Z,17.45
2024-02-06T03:37:42.492Z,17.00
2024-02-06T03:47:44.828Z,13.45
2024-02-06T03:57:50.054Z,15.32
2024-02-06T04:07:52.386Z,7.43
2024-02-06T04:18:01.425Z,7.50
2024-02-06T04:28:03.482Z,14.05
2024-02-06T04:38:09.352Z,21.27
2024-02-06T04:48:11.209Z,23.50
2024-02-06T04:58:13.556Z,23.92
2024-02-06T05:08:15.428Z,29.42
2024-02-06T05:18:18.435Z,26.55
2024-02-06T05:28:21.912Z,26.37
2024-02-06T05:38:24.357Z,21.33
2024-02-06T05:48:29.044Z,25.20
2024-02-06T05:58:32.815Z,28.60
2024-02-06T06:08:38.513Z,23.90
2024-02-06T06:18:41.548Z,28.20
2024-02-06T06:28:43.719Z,25.57
2024-02-06T06:38:45.629Z,24.98
2024-02-06T06:48:48.640Z,25.27
2024-02-06T06:58:51.474Z,22.70
2024-02-06T07:08:55.994Z,23.67
2024-02-06T07:18:58.983Z,28.48
2024-02-06T07:29:01.262Z,23.40
2024-02-06T07:39:05.134Z,21.67
2024-02-06T07:49:07.129Z,25.60
2024-02-06T07:59:12.893Z,23.55
2024-02-06T08:09:15.060Z,26.90
2024-02-06T08:19:19.544Z,23.00
2024-02-06T08:29:41.156Z,23.98
2024-02-06T08:39:43.128Z,28.90
2024-02-06T08:49:45.118Z,23.38
2024-02-06T08:59:52.179Z,25.10
2024-02-06T09:09:58.006Z,23.50
2024-02-06T09:20:00.291Z,26.42
2024-02-06T09:30:13.333Z,24.83
2024-02-06T09:40:21.586Z,23.30
2024-02-06T09:50:23.621Z,26.83
2024-02-06T10:00:27.746Z,24.00
2024-02-06T10:10:31.827Z,20.35
2024-02-06T10:20:48.719Z,23.27
2024-02-06T10:30:54.089Z,16.63
2024-02-06T10:41:06.023Z,27.73
2024-02-06T10:51:28.427Z,20.35
2024-02-06T11:01:43.787Z,19.35
2024-02-06T11:11:46.839Z,14.80
2024-02-06T11:21:57.492Z,13.27
2024-02-06T11:32:03.041Z,7.95
2024-02-06T11:42:04.983Z,8.95
2024-02-06T11:52:09.325Z,11.13
2024-02-06T12:02:12.888Z,8.30
2024-02-06T12:12:23.545Z,5.25
2024-02-06T12:22:25.397Z,10.55
2024-02-06T12:32:27.581Z,11.43
2024-02-06T12:42:29.465Z,7.35
2024-02-06T12:52:31.301Z,5.63
2024-02-06T13:02:35.516Z,7.78
2024-02-06T13:12:47.900Z,6.60
2024-02-06T13:22:52.371Z,6.03
2024-02-06T13:32:54.273Z,5.90
2024-02-06T13:42:56.164Z,4.75
2024-02-06T13:53:02.455Z,7.30
2024-02-06T14:03:11.728Z,7.60
2024-02-06T14:13:19.076Z,7.10
2024-02-06T14:23:24.977Z,8.18
2024-02-06T14:33:29.120Z,4.68
2024-02-06T14:43:32.590Z,1.25
2024-02-06T14:53:36.908Z,2.15
2024-02-06T15:03:41.252Z,2.80
2024-02-06T15:13:43.418Z,3.42
2024-02-06T15:23:47.023Z,6.63
2024-02-06T15:33:54.093Z,4.15
2024-02-06T15:43:57.172Z,2.92
2024-02-06T15:54:00.718Z,4.40
2024-02-06T16:04:04.862Z,1.05
2024-02-06T16:14:07.832Z,3.15
2024-02-06T16:24:12.087Z,5.68
2024-02-06T16:34:15.006Z,2.17
2024-02-06T16:44:24.803Z,2.78
2024-02-06T16:54:29.544Z,1.33
2024-02-06T17:04:31.499Z,5.68
2024-02-06T17:14:35.248Z,4.25
2024-02-06T17:24:37.756Z,5.88
2024-02-06T17:34:41.496Z,3.05
2024-02-06T17:44:50.054Z,2.13
2024-02-06T17:54:51.954Z,3.60
2024-02-06T18:04:56.229Z,8.38
2024-02-06T18:14:58.425Z,4.82
2024-02-06T18:25:01.897Z,6.28
2024-02-06T18:35:04.139Z,5.05
2024-02-06T18:45:06.613Z,4.60
2024-02-06T18:55:13.842Z,3.63
2024-02-06T19:05:16.041Z,3.30
2024-02-06T19:15:18.405Z,8.57
2024-02-06T19:25:21.607Z,3.13
2024-02-06T19:35:23.691Z,3.40
2024-02-06T19:45:25.502Z,3.37
2024-02-06T19:55:28.068Z,5.55
2024-02-06T20:05:29.962Z,2.73
2024-02-06T20:15:34.463Z,3.53
2024-02-06T20:25:36.403Z,3.55
2024-02-06T20:35:38.532Z,3.72
2024-02-06T20:45:42.724Z,3.20
2024-02-06T20:55:44.599Z,3.70
2024-02-06T21:05:47.327Z,4.40
2024-02-06T21:15:49.342Z,5.57
2024-02-06T21:25:51.807Z,3.92
2024-02-06T21:35:53.642Z,4.50
2024-02-06T21:45:56.071Z,4.20
2024-02-06T21:56:08.261Z,6.97
2024-02-06T22:06:17.443Z,6.00
2024-02-06T22:16:21.674Z,3.63
2024-02-06T22:26:25.208Z,3.78
2024-02-06T22:36:28.630Z,4.07
2024-02-06T22:46:30.531Z,4.57
2024-02-06T22:56:32.353Z,3.10
2024-02-06T23:06:36.052Z,5.82
2024-02-06T23:16:38.356Z,12.70
2024-02-06T23:26:40.230Z,1.83
2024-02-06T23:36:42.052Z,2.90
2024-02-06T23:46:43.890Z,3.92
2024-02-06T23:56:45.786Z,6.40
